Main page
METAR-TAF:

METAR-TAF

Airports :

Crystal Airport

Minneapolis / Crystal, Minnesota, United States

latitude: 45-03-45N, longitude: 093-21-03W, elevation: 866 ft

Current weather observation

The report was made 31 minutes ago, at 21:53 UTC
Wind 14 mph from the Southwest
Temperature 14°F
Humidity 37%
Pressure 30.64 in. Hg
Visibility: 10 miles
Clear sky

METAR: KMIC 202153Z 23012KT 10SM CLR M10/M22 A3064 RMK AO2 SLP400 T11001222

Time: 16:24 (22:24 UTC)


TAF: missing

Weather observations and forecasts of more than 4000 airports (METAR and TAF reports).

The available stations are represented by yellow and red dots on the map.

Hover mouse over dot to see the name of the station.

Then click to see weather observations and forecasts.

To change the map : click on the green buttons with a black cross to zoom in, on the green button with a dash to zoom out, or on the green arrows for adjacent maps.


METAR-TAF: